createdAt,value
2023-07-09T00:00:55.480Z,7.80
2023-07-09T00:03:21.941Z,7.30
2023-07-09T00:05:50.224Z,7.15
2023-07-09T00:08:28.518Z,8.05
2023-07-09T00:10:56.485Z,7.37
2023-07-09T00:13:24.923Z,7.25
2023-07-09T00:15:52.136Z,7.63
2023-07-09T00:18:19.002Z,8.05
2023-07-09T00:20:45.458Z,8.20
2023-07-09T00:23:14.471Z,7.87
2023-07-09T00:25:45.329Z,7.57
2023-07-09T00:28:16.430Z,7.90
2023-07-09T00:30:42.867Z,7.50
2023-07-09T00:33:15.353Z,7.85
2023-07-09T00:35:43.876Z,7.63
2023-07-09T00:38:15.580Z,8.00
2023-07-09T00:41:06.856Z,7.07
2023-07-09T00:43:37.420Z,7.90
2023-07-09T00:46:27.554Z,8.00
2023-07-09T00:49:01.761Z,8.00
2023-07-09T00:51:30.383Z,7.60
2023-07-09T00:54:01.265Z,8.50
2023-07-09T00:56:30.676Z,7.70
2023-07-09T00:59:02.424Z,10.43
2023-07-09T01:01:29.076Z,11.03
2023-07-09T01:04:00.142Z,10.95
2023-07-09T01:06:42.411Z,11.35
2023-07-09T01:09:09.229Z,11.45
2023-07-09T01:11:35.918Z,12.02
2023-07-09T01:14:05.351Z,11.57
2023-07-09T01:16:35.072Z,11.50
2023-07-09T01:19:01.779Z,11.43
2023-07-09T01:21:28.366Z,11.10
2023-07-09T01:23:55.804Z,11.43
2023-07-09T01:26:27.093Z,12.23
2023-07-09T01:28:55.654Z,11.30
2023-07-09T01:31:23.196Z,11.70
2023-07-09T01:33:49.886Z,12.30
2023-07-09T01:36:24.352Z,11.77
2023-07-09T01:38:54.491Z,11.67
2023-07-09T01:41:20.980Z,11.02
2023-07-09T01:43:47.504Z,11.95
2023-07-09T01:46:15.297Z,11.75
2023-07-09T01:48:42.334Z,12.45
2023-07-09T01:51:11.634Z,11.43
2023-07-09T01:53:39.921Z,11.13
2023-07-09T01:56:08.599Z,12.00
2023-07-09T01:58:35.725Z,10.73
2023-07-09T02:01:02.536Z,11.63
2023-07-09T02:03:29.269Z,12.03
2023-07-09T02:05:56.275Z,10.68
2023-07-09T02:08:22.749Z,11.43
2023-07-09T02:10:49.936Z,10.63
2023-07-09T02:13:16.811Z,10.45
2023-07-09T02:15:44.399Z,10.80
2023-07-09T02:18:11.900Z,10.02
2023-07-09T02:20:38.528Z,11.07
2023-07-09T02:23:05.203Z,11.02
2023-07-09T02:25:31.701Z,10.95
2023-07-09T02:27:58.144Z,10.87
2023-07-09T02:30:24.756Z,11.90
2023-07-09T02:32:51.330Z,11.32
2023-07-09T02:35:17.961Z,12.52
2023-07-09T02:37:44.475Z,11.82
2023-07-09T02:40:12.832Z,12.03
2023-07-09T02:42:39.368Z,11.85
2023-07-09T02:45:06.270Z,11.57
2023-07-09T02:47:32.942Z,12.00
2023-07-09T02:49:59.515Z,11.73
2023-07-09T02:52:25.962Z,12.20
2023-07-09T02:54:52.473Z,10.85
2023-07-09T02:57:19.065Z,11.63
2023-07-09T02:59:45.495Z,11.68
2023-07-09T03:02:12.528Z,10.18
2023-07-09T03:04:39.142Z,10.70
2023-07-09T03:07:05.996Z,10.93
2023-07-09T03:09:32.689Z,12.23
2023-07-09T03:11:59.171Z,11.98
2023-07-09T03:14:25.821Z,12.20
2023-07-09T03:16:52.600Z,12.63
2023-07-09T03:19:19.199Z,12.68
2023-07-09T03:21:45.681Z,12.75
2023-07-09T03:24:12.095Z,11.95
2023-07-09T03:26:38.571Z,12.15
2023-07-09T03:29:05.045Z,11.27
2023-07-09T03:31:31.558Z,12.85
2023-07-09T03:33:58.064Z,12.23
2023-07-09T03:36:24.586Z,11.73
2023-07-09T03:38:51.006Z,12.02
2023-07-09T03:41:17.561Z,11.03
2023-07-09T03:43:44.608Z,10.80
2023-07-09T03:46:11.115Z,10.32
2023-07-09T03:48:38.072Z,10.13
2023-07-09T03:51:04.803Z,10.52
2023-07-09T03:53:31.313Z,10.33
2023-07-09T03:55:59.302Z,10.90
2023-07-09T03:58:26.583Z,10.63
2023-07-09T04:00:55.068Z,11.50
2023-07-09T04:03:22.004Z,10.73
2023-07-09T04:05:49.857Z,10.47
2023-07-09T04:08:16.557Z,10.65
2023-07-09T04:10:42.992Z,10.82
2023-07-09T04:13:09.479Z,11.63
2023-07-09T04:15:36.073Z,11.27
2023-07-09T04:18:02.702Z,11.83
2023-07-09T04:20:29.244Z,10.57
2023-07-09T04:22:55.724Z,10.55
2023-07-09T04:25:22.971Z,11.80
2023-07-09T04:27:51.504Z,10.40
2023-07-09T04:30:17.968Z,10.37
2023-07-09T04:32:45.071Z,9.80
2023-07-09T04:35:13.913Z,9.63
2023-07-09T04:37:41.296Z,10.80
2023-07-09T04:40:11.409Z,10.18
2023-07-09T04:42:42.371Z,10.47
2023-07-09T04:45:10.960Z,10.77
2023-07-09T04:47:38.328Z,10.63
2023-07-09T04:50:06.657Z,10.23
2023-07-09T04:52:33.279Z,10.52
2023-07-09T04:54:59.804Z,9.93
2023-07-09T04:57:28.081Z,10.73
2023-07-09T04:59:54.721Z,10.27
2023-07-09T05:02:21.288Z,10.50
2023-07-09T05:04:47.738Z,10.13
2023-07-09T05:07:14.173Z,10.20
2023-07-09T05:09:40.670Z,9.60
2023-07-09T05:12:08.082Z,9.55
2023-07-09T05:14:34.506Z,10.15
2023-07-09T05:17:00.910Z,10.32
2023-07-09T05:19:27.470Z,9.70
2023-07-09T05:21:53.893Z,10.05
2023-07-09T05:24:20.294Z,10.57
2023-07-09T05:26:46.758Z,10.18
2023-07-09T05:29:13.248Z,10.23
2023-07-09T05:31:39.786Z,9.53
2023-07-09T05:34:06.335Z,10.65
2023-07-09T05:36:32.890Z,10.60
2023-07-09T05:38:59.547Z,11.15
2023-07-09T05:41:26.234Z,10.52
2023-07-09T05:43:53.456Z,10.07
2023-07-09T05:46:20.718Z,10.18
2023-07-09T05:48:47.711Z,10.38
2023-07-09T05:51:14.356Z,10.15
2023-07-09T05:53:41.480Z,9.55
2023-07-09T05:56:08.439Z,10.65
2023-07-09T05:58:34.863Z,11.27
2023-07-09T06:01:01.470Z,11.30
2023-07-09T06:03:30.462Z,10.70
2023-07-09T06:06:01.419Z,12.15
2023-07-09T06:08:28.631Z,11.07
2023-07-09T06:11:01.739Z,11.68
2023-07-09T06:13:31.818Z,10.90
2023-07-09T06:15:59.503Z,12.38
2023-07-09T06:18:30.248Z,12.48
2023-07-09T06:21:02.201Z,12.77
2023-07-09T06:23:29.935Z,13.02
2023-07-09T06:25:56.484Z,13.00
2023-07-09T06:28:25.647Z,12.43
2023-07-09T06:30:52.355Z,11.77
2023-07-09T06:33:20.343Z,12.00
2023-07-09T06:35:49.210Z,12.32
2023-07-09T06:38:16.135Z,11.77
2023-07-09T06:40:42.841Z,12.02
2023-07-09T06:43:09.339Z,12.07
2023-07-09T06:45:35.818Z,11.57
2023-07-09T06:48:02.648Z,12.70
2023-07-09T06:50:29.495Z,12.63
2023-07-09T06:52:56.420Z,12.80
2023-07-09T06:55:23.045Z,12.73
2023-07-09T06:57:49.489Z,13.40
2023-07-09T07:00:16.441Z,12.63
2023-07-09T07:02:43.138Z,11.63
2023-07-09T07:05:09.892Z,12.60
2023-07-09T07:07:36.362Z,13.47
2023-07-09T07:10:04.671Z,12.57
2023-07-09T07:12:43.026Z,12.40
2023-07-09T07:15:10.042Z,14.10
2023-07-09T07:17:36.551Z,12.77
2023-07-09T07:20:03.084Z,11.97
2023-07-09T07:22:29.492Z,11.95
2023-07-09T07:24:56.001Z,13.30
2023-07-09T07:27:22.625Z,12.32
2023-07-09T07:29:49.156Z,12.32
2023-07-09T07:32:15.604Z,12.83
2023-07-09T07:34:42.225Z,11.88
2023-07-09T07:37:08.633Z,12.85
2023-07-09T07:39:35.116Z,11.55
2023-07-09T07:42:01.613Z,11.75
2023-07-09T07:44:28.025Z,11.33
2023-07-09T07:46:54.514Z,10.88
2023-07-09T07:49:21.048Z,10.95
2023-07-09T07:51:48.263Z,10.00
2023-07-09T07:54:15.728Z,10.07
2023-07-09T07:56:42.340Z,11.97
2023-07-09T07:59:08.891Z,10.77
2023-07-09T08:01:36.729Z,10.85
2023-07-09T08:04:04.005Z,12.43
2023-07-09T08:06:32.317Z,11.70
2023-07-09T08:08:59.552Z,11.80
2023-07-09T08:11:29.009Z,10.95
2023-07-09T08:13:55.446Z,11.02
2023-07-09T08:16:21.994Z,10.15
2023-07-09T08:18:48.559Z,10.38
2023-07-09T08:21:15.146Z,10.77
2023-07-09T08:23:41.656Z,10.77
2023-07-09T08:26:08.214Z,9.48
2023-07-09T08:28:36.073Z,8.93
2023-07-09T08:31:03.451Z,10.25
2023-07-09T08:33:31.285Z,10.43
2023-07-09T08:35:57.872Z,9.80
2023-07-09T08:38:25.096Z,8.27
2023-07-09T08:40:59.428Z,9.48
2023-07-09T08:43:39.921Z,9.10
2023-07-09T08:46:34.585Z,7.65
2023-07-09T08:49:03.166Z,6.43
2023-07-09T08:51:41.978Z,6.10
2023-07-09T08:54:18.018Z,5.88
2023-07-09T08:56:45.418Z,7.25
2023-07-09T08:59:18.319Z,8.47
2023-07-09T09:01:58.963Z,7.63
2023-07-09T09:04:29.493Z,7.20
2023-07-09T09:07:42.453Z,7.47
2023-07-09T09:10:17.112Z,6.57
2023-07-09T09:12:57.763Z,6.70
2023-07-09T09:15:25.344Z,6.80
2023-07-09T09:17:54.462Z,7.85
2023-07-09T09:20:23.448Z,6.55
2023-07-09T09:23:00.746Z,6.07
2023-07-09T09:25:36.335Z,6.47
2023-07-09T09:28:03.763Z,5.75
2023-07-09T09:30:31.866Z,6.80
2023-07-09T09:33:18.490Z,6.05
2023-07-09T09:35:46.357Z,6.43
2023-07-09T09:38:14.492Z,6.27
2023-07-09T09:40:41.330Z,7.88
2023-07-09T09:43:15.609Z,5.70
2023-07-09T09:45:43.995Z,6.25
2023-07-09T09:48:15.492Z,6.40
2023-07-09T09:50:42.486Z,5.57
2023-07-09T09:53:10.617Z,8.80
2023-07-09T09:55:40.138Z,9.05
2023-07-09T09:58:15.205Z,10.75
2023-07-09T10:00:41.994Z,10.10
2023-07-09T10:03:08.625Z,10.48
2023-07-09T10:05:57.549Z,8.48
2023-07-09T10:08:42.473Z,10.52
2023-07-09T10:11:18.678Z,8.75
2023-07-09T10:13:46.650Z,9.10
2023-07-09T10:16:37.189Z,9.90
2023-07-09T10:19:18.913Z,9.48
2023-07-09T10:22:22.752Z,9.20
2023-07-09T10:25:02.427Z,10.77
2023-07-09T10:28:05.560Z,11.27
2023-07-09T10:30:44.830Z,10.70
2023-07-09T10:33:15.030Z,10.98
2023-07-09T10:36:18.645Z,10.52
2023-07-09T10:38:57.436Z,10.48
2023-07-09T10:41:27.989Z,12.27
2023-07-09T10:44:09.966Z,11.15
2023-07-09T10:46:39.906Z,10.77
2023-07-09T10:49:12.403Z,11.07
2023-07-09T10:51:43.070Z,10.68
2023-07-09T10:54:32.618Z,11.30
2023-07-09T10:57:14.667Z,10.45
2023-07-09T10:59:42.976Z,10.82
2023-07-09T11:02:32.363Z,11.45
2023-07-09T11:05:05.687Z,11.13
2023-07-09T11:07:37.258Z,11.73
2023-07-09T11:10:35.392Z,12.13
2023-07-09T11:13:01.792Z,11.07
2023-07-09T11:15:36.873Z,9.98
2023-07-09T11:18:07.237Z,10.10
2023-07-09T11:20:43.310Z,9.82
2023-07-09T11:23:52.143Z,9.05
2023-07-09T11:26:32.303Z,10.25
2023-07-09T11:29:07.998Z,10.80
2023-07-09T11:31:40.133Z,10.75
2023-07-09T11:34:13.727Z,10.82
2023-07-09T11:36:55.354Z,10.00
2023-07-09T11:39:23.377Z,10.88
2023-07-09T11:41:50.162Z,10.68
2023-07-09T11:44:21.229Z,8.70
2023-07-09T11:47:13.612Z,9.48
2023-07-09T11:49:53.168Z,10.00
2023-07-09T11:52:28.902Z,9.85
2023-07-09T11:54:55.463Z,10.00
2023-07-09T11:57:21.878Z,9.45
2023-07-09T11:59:48.329Z,10.20
2023-07-09T12:02:20.940Z,8.43
2023-07-09T12:04:51.971Z,8.35
2023-07-09T12:07:20.243Z,7.88
2023-07-09T12:09:52.577Z,7.75
2023-07-09T12:12:27.485Z,7.15
2023-07-09T12:14:54.226Z,6.93
2023-07-09T12:17:25.182Z,6.72
2023-07-09T12:19:52.992Z,7.50
2023-07-09T12:22:23.425Z,7.38
2023-07-09T12:24:51.562Z,6.95
2023-07-09T12:27:29.389Z,7.20
2023-07-09T12:29:58.510Z,5.70
2023-07-09T12:32:27.793Z,6.15
2023-07-09T12:34:58.199Z,5.60
2023-07-09T12:37:29.530Z,5.93
2023-07-09T12:39:56.085Z,6.10
2023-07-09T12:42:35.049Z,5.90
2023-07-09T12:45:01.701Z,6.18
2023-07-09T12:47:28.631Z,5.38
2023-07-09T12:50:03.824Z,5.68
2023-07-09T12:52:30.460Z,4.90
2023-07-09T12:55:03.953Z,5.25
2023-07-09T12:57:31.744Z,5.75
2023-07-09T12:59:59.758Z,5.25
2023-07-09T13:02:28.673Z,5.47
2023-07-09T13:05:05.473Z,5.57
2023-07-09T13:07:36.014Z,6.25
2023-07-09T13:10:26.858Z,5.47
2023-07-09T13:12:56.906Z,6.30
2023-07-09T13:15:31.635Z,4.72
2023-07-09T13:18:01.309Z,5.57
2023-07-09T13:20:28.709Z,5.07
2023-07-09T13:22:56.184Z,5.15
2023-07-09T13:25:36.711Z,5.05
2023-07-09T13:28:29.491Z,3.97
2023-07-09T13:31:01.982Z,4.37
2023-07-09T13:33:28.926Z,4.20
2023-07-09T13:35:55.528Z,4.40
2023-07-09T13:38:23.974Z,4.28
2023-07-09T13:40:54.896Z,4.40
2023-07-09T13:43:29.128Z,5.00
2023-07-09T13:45:57.301Z,4.53
2023-07-09T13:48:25.578Z,4.57
2023-07-09T13:50:54.550Z,4.22
2023-07-09T13:53:24.749Z,4.78
2023-07-09T13:55:51.403Z,4.25
2023-07-09T13:58:20.688Z,4.70
2023-07-09T14:00:48.860Z,4.10
2023-07-09T14:03:19.802Z,4.38
2023-07-09T14:05:49.561Z,4.40
2023-07-09T14:08:17.488Z,4.00
2023-07-09T14:10:45.733Z,3.65
2023-07-09T14:13:17.560Z,2.90
2023-07-09T14:15:44.387Z,3.33
2023-07-09T14:18:14.508Z,3.08
2023-07-09T14:20:41.078Z,2.45
2023-07-09T14:23:16.747Z,2.22
2023-07-09T14:25:53.002Z,2.78
2023-07-09T14:28:21.708Z,3.10
2023-07-09T14:30:51.792Z,2.35
2023-07-09T14:33:20.374Z,2.65
2023-07-09T14:35:48.353Z,3.00
2023-07-09T14:38:26.312Z,2.85
2023-07-09T14:40:59.823Z,3.28
2023-07-09T14:43:26.268Z,2.58
2023-07-09T14:45:53.007Z,2.83
2023-07-09T14:48:21.746Z,2.80
2023-07-09T14:50:48.976Z,3.15
2023-07-09T14:53:28.565Z,3.00
2023-07-09T14:55:55.747Z,3.35
2023-07-09T14:58:24.503Z,3.00
2023-07-09T15:00:51.778Z,3.83
2023-07-09T15:03:26.783Z,3.67
2023-07-09T15:05:55.457Z,3.30
2023-07-09T15:08:25.003Z,2.92
2023-07-09T15:10:53.525Z,2.33
2023-07-09T15:13:31.309Z,2.83
2023-07-09T15:15:58.418Z,3.05
2023-07-09T15:18:25.102Z,2.75
2023-07-09T15:20:57.393Z,2.85
2023-07-09T15:23:24.181Z,2.53
2023-07-09T15:25:51.180Z,2.77
2023-07-09T15:28:18.486Z,2.92
2023-07-09T15:30:45.312Z,2.55
2023-07-09T15:33:16.865Z,2.67
2023-07-09T15:35:45.805Z,2.67
2023-07-09T15:38:18.568Z,2.60
2023-07-09T15:40:48.906Z,3.10
2023-07-09T15:43:16.648Z,3.28
2023-07-09T15:45:45.672Z,3.55
2023-07-09T15:48:23.057Z,4.22
2023-07-09T15:50:49.809Z,3.93
2023-07-09T15:53:16.377Z,4.05
2023-07-09T15:55:42.837Z,4.68
2023-07-09T15:58:16.962Z,4.78
2023-07-09T16:00:45.983Z,4.85
2023-07-09T16:03:21.270Z,5.00
2023-07-09T16:05:48.951Z,5.28
2023-07-09T16:08:15.623Z,5.25
2023-07-09T16:10:42.161Z,4.90
2023-07-09T16:13:26.956Z,5.63
2023-07-09T16:15:53.624Z,5.00
2023-07-09T16:18:20.345Z,5.22
2023-07-09T16:20:48.078Z,4.43
2023-07-09T16:23:20.685Z,3.78
2023-07-09T16:25:49.066Z,4.00
2023-07-09T16:28:19.293Z,4.07
2023-07-09T16:30:47.894Z,3.80
2023-07-09T16:33:18.255Z,3.95
2023-07-09T16:35:44.984Z,4.63
2023-07-09T16:38:14.673Z,4.28
2023-07-09T16:40:41.352Z,4.10
2023-07-09T16:43:22.202Z,3.55
2023-07-09T16:45:49.512Z,3.47
2023-07-09T16:48:21.980Z,3.60
2023-07-09T16:50:50.890Z,2.88
2023-07-09T16:53:19.482Z,3.60
2023-07-09T16:55:47.244Z,3.63
2023-07-09T16:58:33.475Z,2.95
2023-07-09T17:01:01.142Z,3.38
2023-07-09T17:03:29.101Z,3.42
2023-07-09T17:05:55.806Z,2.63
2023-07-09T17:08:22.304Z,2.92
2023-07-09T17:10:50.867Z,3.25
2023-07-09T17:13:21.982Z,3.13
2023-07-09T17:15:48.563Z,2.92
2023-07-09T17:18:27.227Z,3.87
2023-07-09T17:20:56.147Z,2.83
2023-07-09T17:23:27.372Z,3.25
2023-07-09T17:25:55.072Z,3.10
2023-07-09T17:28:29.121Z,2.88
2023-07-09T17:30:57.234Z,2.80
2023-07-09T17:33:24.741Z,2.35
2023-07-09T17:35:53.176Z,2.72
2023-07-09T17:38:24.618Z,3.35
2023-07-09T17:40:51.236Z,2.90
2023-07-09T17:43:20.679Z,2.45
2023-07-09T17:45:48.909Z,2.63
2023-07-09T17:48:18.691Z,2.78
2023-07-09T17:50:46.993Z,2.53
2023-07-09T17:53:17.800Z,3.10
2023-07-09T17:55:45.264Z,3.00
2023-07-09T17:58:22.334Z,2.00
2023-07-09T18:00:51.318Z,2.45
2023-07-09T18:03:17.898Z,2.03
2023-07-09T18:05:45.028Z,2.50
2023-07-09T18:08:13.226Z,2.30
2023-07-09T18:10:42.433Z,2.67
2023-07-09T18:13:13.583Z,2.60
2023-07-09T18:15:41.589Z,3.85
2023-07-09T18:18:10.033Z,3.70
2023-07-09T18:20:36.650Z,3.80
2023-07-09T18:23:03.548Z,3.97
2023-07-09T18:25:31.171Z,4.30
2023-07-09T18:28:02.579Z,4.32
2023-07-09T18:30:32.873Z,3.83
2023-07-09T18:33:03.618Z,4.13
2023-07-09T18:35:33.342Z,4.45
2023-07-09T18:38:05.800Z,4.65
2023-07-09T18:40:38.147Z,4.65
2023-07-09T18:43:31.530Z,4.53
2023-07-09T18:45:58.953Z,3.93
2023-07-09T18:48:26.301Z,5.20
2023-07-09T18:50:54.519Z,4.88
2023-07-09T18:53:23.433Z,4.97
2023-07-09T18:55:50.960Z,5.10
2023-07-09T18:58:29.262Z,5.20
2023-07-09T19:00:58.201Z,5.15
2023-07-09T19:03:32.136Z,4.72
2023-07-09T19:05:59.741Z,5.07
2023-07-09T19:08:28.312Z,5.45
2023-07-09T19:10:55.996Z,4.70
2023-07-09T19:13:22.875Z,5.20
2023-07-09T19:15:51.330Z,5.75
2023-07-09T19:18:25.050Z,5.10
2023-07-09T19:20:52.404Z,5.63
2023-07-09T19:23:19.616Z,4.53
2023-07-09T19:25:47.127Z,4.85
2023-07-09T19:28:14.757Z,4.95
2023-07-09T19:30:43.112Z,5.38
2023-07-09T19:33:17.700Z,5.65
2023-07-09T19:35:44.322Z,5.70
2023-07-09T19:38:10.980Z,5.93
2023-07-09T19:40:40.094Z,7.30
2023-07-09T19:43:08.431Z,6.32
2023-07-09T19:45:40.269Z,6.20
2023-07-09T19:48:15.764Z,6.37
2023-07-09T19:50:48.052Z,6.88
2023-07-09T19:53:20.305Z,6.38
2023-07-09T19:55:46.926Z,5.97
2023-07-09T19:58:13.452Z,6.60
2023-07-09T20:00:40.228Z,6.43
2023-07-09T20:03:22.846Z,6.07
2023-07-09T20:05:49.473Z,6.45
2023-07-09T20:08:19.938Z,6.30
2023-07-09T20:10:47.255Z,6.40
2023-07-09T20:13:15.911Z,6.40
2023-07-09T20:15:43.234Z,5.93
2023-07-09T20:18:17.620Z,5.95
2023-07-09T20:21:05.530Z,6.60
2023-07-09T20:23:32.861Z,6.32
2023-07-09T20:26:00.172Z,6.53
2023-07-09T20:28:28.831Z,6.10
2023-07-09T20:30:56.518Z,5.88
2023-07-09T20:33:24.502Z,5.75
2023-07-09T20:35:51.669Z,6.45
2023-07-09T20:38:21.200Z,6.30
2023-07-09T20:40:48.424Z,6.25
2023-07-09T20:43:20.235Z,6.00
2023-07-09T20:45:47.315Z,7.05
2023-07-09T20:48:13.844Z,6.10
2023-07-09T20:50:42.759Z,6.23
2023-07-09T20:53:15.929Z,6.57
2023-07-09T20:55:43.805Z,6.88
2023-07-09T20:58:17.317Z,6.78
2023-07-09T21:00:44.698Z,6.43
2023-07-09T21:03:17.613Z,6.43
2023-07-09T21:05:44.742Z,6.85
2023-07-09T21:08:17.308Z,6.85
2023-07-09T21:10:45.315Z,6.65
2023-07-09T21:13:15.014Z,6.90
2023-07-09T21:15:41.701Z,7.15
2023-07-09T21:18:15.604Z,6.63
2023-07-09T21:20:42.409Z,6.53
2023-07-09T21:23:15.837Z,6.72
2023-07-09T21:25:42.508Z,6.57
2023-07-09T21:28:08.997Z,6.10
2023-07-09T21:30:35.501Z,6.57
2023-07-09T21:33:02.291Z,5.90
2023-07-09T21:35:28.952Z,5.97
2023-07-09T21:37:58.028Z,5.25
2023-07-09T21:40:32.181Z,5.88
2023-07-09T21:43:00.875Z,5.80
2023-07-09T21:45:32.300Z,5.07
2023-07-09T21:48:05.333Z,4.95
2023-07-09T21:50:32.814Z,5.60
2023-07-09T21:52:59.485Z,5.73
2023-07-09T21:55:28.781Z,5.18
2023-07-09T21:57:56.492Z,5.95
2023-07-09T22:00:28.261Z,5.70
2023-07-09T22:02:55.845Z,5.82
2023-07-09T22:05:28.091Z,5.73
2023-07-09T22:07:56.666Z,4.80
2023-07-09T22:10:52.029Z,4.88
2023-07-09T22:13:19.790Z,4.93
2023-07-09T22:15:46.503Z,4.70
2023-07-09T22:18:19.027Z,4.50
2023-07-09T22:20:46.015Z,4.75
2023-07-09T22:23:23.364Z,4.47
2023-07-09T22:25:50.469Z,3.83
2023-07-09T22:28:18.567Z,5.40
2023-07-09T22:30:46.041Z,4.50
2023-07-09T22:33:13.261Z,3.92
2023-07-09T22:35:39.848Z,4.35
2023-07-09T22:38:20.040Z,4.35
2023-07-09T22:40:48.140Z,4.15
2023-07-09T22:43:14.879Z,4.72
2023-07-09T22:45:44.573Z,4.18
2023-07-09T22:48:11.988Z,3.67
2023-07-09T22:50:39.904Z,3.97
2023-07-09T22:53:12.544Z,4.32
2023-07-09T22:55:41.182Z,4.73
2023-07-09T22:58:09.917Z,4.47
2023-07-09T23:00:47.858Z,4.03
2023-07-09T23:03:18.160Z,3.90
2023-07-09T23:05:46.197Z,4.20
2023-07-09T23:08:20.310Z,4.07
2023-07-09T23:10:47.235Z,4.10
2023-07-09T23:13:13.899Z,4.57
2023-07-09T23:15:40.446Z,4.25
2023-07-09T23:18:17.310Z,4.47
2023-07-09T23:20:44.125Z,3.53
2023-07-09T23:23:11.371Z,3.90
2023-07-09T23:25:38.121Z,3.70
2023-07-09T23:28:05.961Z,3.08
2023-07-09T23:30:34.696Z,2.90
2023-07-09T23:33:18.887Z,2.90
2023-07-09T23:35:45.393Z,2.72
2023-07-09T23:38:11.868Z,2.35
2023-07-09T23:40:38.295Z,2.25
2023-07-09T23:43:04.853Z,2.25
2023-07-09T23:45:34.578Z,1.57
2023-07-09T23:48:04.731Z,1.50
2023-07-09T23:50:31.213Z,1.63
2023-07-09T23:52:57.651Z,1.23
2023-07-09T23:55:24.554Z,1.33
2023-07-09T23:57:57.830Z,1.20
